sensor_id;sensor_type;location;lat;lon;timestamp;P1;durP1;ratioP1;P2;durP2;ratioP2
11000;SDS011;5553;48.506;8.870;2022-10-16T00:01:39;5.47;;;1.90;;
11000;SDS011;5553;48.506;8.870;2022-10-16T00:04:08;1.30;;;1.20;;
11000;SDS011;5553;48.506;8.870;2022-10-16T00:06:36;3.20;;;1.77;;
11000;SDS011;5553;48.506;8.870;2022-10-16T00:09:08;1.53;;;1.43;;
11000;SDS011;5553;48.506;8.870;2022-10-16T00:11:37;2.10;;;1.40;;
11000;SDS011;5553;48.506;8.870;2022-10-16T00:14:08;2.00;;;1.50;;
11000;SDS011;5553;48.506;8.870;2022-10-16T00:16:39;2.10;;;1.60;;
11000;SDS011;5553;48.506;8.870;2022-10-16T00:19:08;4.10;;;1.70;;
11000;SDS011;5553;48.506;8.870;2022-10-16T00:21:38;1.40;;;1.30;;
11000;SDS011;5553;48.506;8.870;2022-10-16T00:24:09;1.60;;;1.50;;
11000;SDS011;5553;48.506;8.870;2022-10-16T00:26:38;3.50;;;1.93;;
11000;SDS011;5553;48.506;8.870;2022-10-16T00:29:07;1.40;;;1.30;;
11000;SDS011;5553;48.506;8.870;2022-10-16T00:31:36;2.57;;;1.63;;
11000;SDS011;5553;48.506;8.870;2022-10-16T00:34:04;1.80;;;1.70;;
11000;SDS011;5553;48.506;8.870;2022-10-16T00:36:33;2.00;;;1.17;;
11000;SDS011;5553;48.506;8.870;2022-10-16T00:39:01;1.77;;;1.30;;
11000;SDS011;5553;48.506;8.870;2022-10-16T00:41:32;2.27;;;1.57;;
11000;SDS011;5553;48.506;8.870;2022-10-16T00:44:02;1.83;;;1.40;;
11000;SDS011;5553;48.506;8.870;2022-10-16T00:46:33;2.77;;;1.57;;
11000;SDS011;5553;48.506;8.870;2022-10-16T00:49:05;2.40;;;2.20;;
11000;SDS011;5553;48.506;8.870;2022-10-16T00:51:36;3.50;;;1.60;;
11000;SDS011;5553;48.506;8.870;2022-10-16T00:54:07;2.53;;;1.50;;
11000;SDS011;5553;48.506;8.870;2022-10-16T00:56:40;2.03;;;1.30;;
11000;SDS011;5553;48.506;8.870;2022-10-16T00:59:10;2.23;;;1.50;;
11000;SDS011;5553;48.506;8.870;2022-10-16T01:01:43;2.67;;;1.67;;
11000;SDS011;5553;48.506;8.870;2022-10-16T01:04:11;1.70;;;1.60;;
11000;SDS011;5553;48.506;8.870;2022-10-16T01:06:41;3.10;;;2.07;;
11000;SDS011;5553;48.506;8.870;2022-10-16T01:09:17;2.03;;;1.90;;
11000;SDS011;5553;48.506;8.870;2022-10-16T01:11:57;1.90;;;1.73;;
11000;SDS011;5553;48.506;8.870;2022-10-16T01:14:36;1.47;;;1.37;;
11000;SDS011;5553;48.506;8.870;2022-10-16T01:17:11;5.70;;;1.70;;
11000;SDS011;5553;48.506;8.870;2022-10-16T01:22:34;2.20;;;1.50;;
11000;SDS011;5553;48.506;8.870;2022-10-16T01:25:09;2.57;;;1.93;;
11000;SDS011;5553;48.506;8.870;2022-10-16T01:27:46;4.63;;;1.80;;
11000;SDS011;5553;48.506;8.870;2022-10-16T01:30:16;2.10;;;1.70;;
11000;SDS011;5553;48.506;8.870;2022-10-16T01:32:50;2.00;;;1.70;;
11000;SDS011;5553;48.506;8.870;2022-10-16T01:35:25;2.13;;;1.60;;
11000;SDS011;5553;48.506;8.870;2022-10-16T01:37:58;2.33;;;1.50;;
11000;SDS011;5553;48.506;8.870;2022-10-16T01:40:31;3.73;;;1.90;;
11000;SDS011;5553;48.506;8.870;2022-10-16T01:43:05;2.40;;;1.97;;
11000;SDS011;5553;48.506;8.870;2022-10-16T01:45:38;2.80;;;1.37;;
11000;SDS011;5553;48.506;8.870;2022-10-16T01:48:09;6.97;;;2.00;;
11000;SDS011;5553;48.506;8.870;2022-10-16T01:50:41;1.90;;;1.67;;
11000;SDS011;5553;48.506;8.870;2022-10-16T01:53:13;2.37;;;2.17;;
11000;SDS011;5553;48.506;8.870;2022-10-16T01:55:44;4.10;;;2.37;;
11000;SDS011;5553;48.506;8.870;2022-10-16T01:58:18;2.60;;;2.20;;
11000;SDS011;5553;48.506;8.870;2022-10-16T02:00:46;2.83;;;2.20;;
11000;SDS011;5553;48.506;8.870;2022-10-16T02:03:16;5.03;;;2.10;;
11000;SDS011;5553;48.506;8.870;2022-10-16T02:05:47;3.20;;;2.07;;
11000;SDS011;5553;48.506;8.870;2022-10-16T02:08:19;4.87;;;1.90;;
11000;SDS011;5553;48.506;8.870;2022-10-16T02:10:48;2.50;;;2.20;;
11000;SDS011;5553;48.506;8.870;2022-10-16T02:13:19;1.80;;;1.70;;
11000;SDS011;5553;48.506;8.870;2022-10-16T02:15:53;2.27;;;2.07;;
11000;SDS011;5553;48.506;8.870;2022-10-16T02:18:22;2.43;;;1.70;;
11000;SDS011;5553;48.506;8.870;2022-10-16T02:20:55;1.83;;;1.73;;
11000;SDS011;5553;48.506;8.870;2022-10-16T02:23:29;1.60;;;1.47;;
11000;SDS011;5553;48.506;8.870;2022-10-16T02:26:07;2.10;;;1.90;;
11000;SDS011;5553;48.506;8.870;2022-10-16T02:28:44;1.80;;;1.70;;
11000;SDS011;5553;48.506;8.870;2022-10-16T02:31:16;1.57;;;1.30;;
11000;SDS011;5553;48.506;8.870;2022-10-16T02:33:51;1.87;;;1.73;;
11000;SDS011;5553;48.506;8.870;2022-10-16T02:36:22;2.47;;;1.80;;
11000;SDS011;5553;48.506;8.870;2022-10-16T02:38:51;2.10;;;2.00;;
11000;SDS011;5553;48.506;8.870;2022-10-16T02:41:20;2.77;;;2.57;;
11000;SDS011;5553;48.506;8.870;2022-10-16T02:43:51;2.57;;;1.93;;
11000;SDS011;5553;48.506;8.870;2022-10-16T02:46:20;4.00;;;1.90;;
11000;SDS011;5553;48.506;8.870;2022-10-16T02:48:49;2.83;;;1.50;;
11000;SDS011;5553;48.506;8.870;2022-10-16T02:51:17;4.40;;;1.73;;
11000;SDS011;5553;48.506;8.870;2022-10-16T02:53:45;3.47;;;1.70;;
11000;SDS011;5553;48.506;8.870;2022-10-16T02:56:14;1.53;;;1.43;;
11000;SDS011;5553;48.506;8.870;2022-10-16T02:58:42;2.07;;;1.97;;
11000;SDS011;5553;48.506;8.870;2022-10-16T03:01:13;1.80;;;1.63;;
11000;SDS011;5553;48.506;8.870;2022-10-16T03:03:41;1.77;;;1.67;;
11000;SDS011;5553;48.506;8.870;2022-10-16T03:06:10;5.30;;;1.63;;
11000;SDS011;5553;48.506;8.870;2022-10-16T03:08:39;2.10;;;1.90;;
11000;SDS011;5553;48.506;8.870;2022-10-16T03:11:07;2.40;;;1.50;;
11000;SDS011;5553;48.506;8.870;2022-10-16T03:13:35;3.93;;;1.80;;
11000;SDS011;5553;48.506;8.870;2022-10-16T03:16:04;8.13;;;1.60;;
11000;SDS011;5553;48.506;8.870;2022-10-16T03:18:35;2.20;;;2.07;;
11000;SDS011;5553;48.506;8.870;2022-10-16T03:21:03;2.37;;;1.20;;
11000;SDS011;5553;48.506;8.870;2022-10-16T03:23:31;1.97;;;1.77;;
11000;SDS011;5553;48.506;8.870;2022-10-16T03:26:00;2.63;;;2.10;;
11000;SDS011;5553;48.506;8.870;2022-10-16T03:28:28;1.97;;;1.80;;
11000;SDS011;5553;48.506;8.870;2022-10-16T03:30:56;2.03;;;1.50;;
11000;SDS011;5553;48.506;8.870;2022-10-16T03:33:25;3.30;;;2.23;;
11000;SDS011;5553;48.506;8.870;2022-10-16T03:35:56;2.60;;;1.97;;
11000;SDS011;5553;48.506;8.870;2022-10-16T03:38:25;2.50;;;2.30;;
11000;SDS011;5553;48.506;8.870;2022-10-16T03:40:53;2.80;;;2.07;;
11000;SDS011;5553;48.506;8.870;2022-10-16T03:43:22;4.47;;;1.73;;
11000;SDS011;5553;48.506;8.870;2022-10-16T03:45:50;1.70;;;1.60;;
11000;SDS011;5553;48.506;8.870;2022-10-16T03:48:18;3.37;;;1.60;;
11000;SDS011;5553;48.506;8.870;2022-10-16T03:50:47;1.53;;;1.43;;
11000;SDS011;5553;48.506;8.870;2022-10-16T03:53:19;3.20;;;1.80;;
11000;SDS011;5553;48.506;8.870;2022-10-16T03:55:47;2.53;;;1.80;;
11000;SDS011;5553;48.506;8.870;2022-10-16T03:58:16;2.10;;;2.00;;
11000;SDS011;5553;48.506;8.870;2022-10-16T04:00:45;2.60;;;1.90;;
11000;SDS011;5553;48.506;8.870;2022-10-16T04:03:14;2.07;;;1.87;;
11000;SDS011;5553;48.506;8.870;2022-10-16T04:05:44;2.47;;;2.00;;
11000;SDS011;5553;48.506;8.870;2022-10-16T04:08:12;4.57;;;2.07;;
11000;SDS011;5553;48.506;8.870;2022-10-16T04:10:44;1.90;;;1.70;;
11000;SDS011;5553;48.506;8.870;2022-10-16T04:13:13;3.27;;;1.87;;
11000;SDS011;5553;48.506;8.870;2022-10-16T04:15:41;5.43;;;1.60;;
11000;SDS011;5553;48.506;8.870;2022-10-16T04:18:10;1.87;;;1.63;;
11000;SDS011;5553;48.506;8.870;2022-10-16T04:20:38;2.40;;;1.70;;
11000;SDS011;5553;48.506;8.870;2022-10-16T04:23:07;3.43;;;1.60;;
11000;SDS011;5553;48.506;8.870;2022-10-16T04:25:35;1.73;;;1.63;;
11000;SDS011;5553;48.506;8.870;2022-10-16T04:28:06;1.63;;;1.53;;
11000;SDS011;5553;48.506;8.870;2022-10-16T04:30:34;2.20;;;1.60;;
11000;SDS011;5553;48.506;8.870;2022-10-16T04:33:05;3.53;;;2.43;;
11000;SDS011;5553;48.506;8.870;2022-10-16T04:35:33;2.10;;;1.40;;
11000;SDS011;5553;48.506;8.870;2022-10-16T04:38:02;2.30;;;2.10;;
11000;SDS011;5553;48.506;8.870;2022-10-16T04:40:30;2.03;;;1.80;;
11000;SDS011;5553;48.506;8.870;2022-10-16T04:43:01;1.20;;;1.20;;
11000;SDS011;5553;48.506;8.870;2022-10-16T04:45:32;2.67;;;2.43;;
11000;SDS011;5553;48.506;8.870;2022-10-16T04:48:01;3.57;;;1.90;;
11000;SDS011;5553;48.506;8.870;2022-10-16T04:50:29;3.70;;;1.60;;
11000;SDS011;5553;48.506;8.870;2022-10-16T04:52:57;2.33;;;2.03;;
11000;SDS011;5553;48.506;8.870;2022-10-16T04:55:26;3.30;;;2.00;;
11000;SDS011;5553;48.506;8.870;2022-10-16T04:57:54;2.23;;;2.03;;
11000;SDS011;5553;48.506;8.870;2022-10-16T05:00:23;3.20;;;2.00;;
11000;SDS011;5553;48.506;8.870;2022-10-16T05:02:54;2.00;;;1.90;;
11000;SDS011;5553;48.506;8.870;2022-10-16T05:05:24;5.03;;;2.13;;
11000;SDS011;5553;48.506;8.870;2022-10-16T05:07:53;2.43;;;1.90;;
11000;SDS011;5553;48.506;8.870;2022-10-16T05:10:21;8.87;;;2.73;;
11000;SDS011;5553;48.506;8.870;2022-10-16T05:12:50;3.70;;;2.13;;
11000;SDS011;5553;48.506;8.870;2022-10-16T05:15:18;7.20;;;2.67;;
11000;SDS011;5553;48.506;8.870;2022-10-16T05:17:54;3.83;;;1.90;;
11000;SDS011;5553;48.506;8.870;2022-10-16T05:20:22;3.97;;;2.30;;
11000;SDS011;5553;48.506;8.870;2022-10-16T05:22:51;2.10;;;2.00;;
11000;SDS011;5553;48.506;8.870;2022-10-16T05:25:19;5.13;;;2.13;;
11000;SDS011;5553;48.506;8.870;2022-10-16T05:27:48;3.67;;;1.90;;
11000;SDS011;5553;48.506;8.870;2022-10-16T05:30:17;2.90;;;2.17;;
11000;SDS011;5553;48.506;8.870;2022-10-16T05:32:46;1.80;;;1.70;;
11000;SDS011;5553;48.506;8.870;2022-10-16T05:35:17;2.50;;;2.00;;
11000;SDS011;5553;48.506;8.870;2022-10-16T05:37:46;4.33;;;2.63;;
11000;SDS011;5553;48.506;8.870;2022-10-16T05:40:15;2.30;;;2.07;;
11000;SDS011;5553;48.506;8.870;2022-10-16T05:42:44;3.07;;;2.00;;
11000;SDS011;5553;48.506;8.870;2022-10-16T05:45:12;2.67;;;2.47;;
11000;SDS011;5553;48.506;8.870;2022-10-16T05:47:40;2.10;;;1.90;;
11000;SDS011;5553;48.506;8.870;2022-10-16T05:50:09;2.30;;;1.90;;
11000;SDS011;5553;48.506;8.870;2022-10-16T05:52:39;2.50;;;2.30;;
11000;SDS011;5553;48.506;8.870;2022-10-16T05:55:08;4.40;;;2.37;;
11000;SDS011;5553;48.506;8.870;2022-10-16T05:57:36;2.20;;;2.00;;
11000;SDS011;5553;48.506;8.870;2022-10-16T06:00:05;6.33;;;1.93;;
11000;SDS011;5553;48.506;8.870;2022-10-16T06:02:34;2.43;;;2.10;;
11000;SDS011;5553;48.506;8.870;2022-10-16T06:05:03;2.13;;;1.90;;
11000;SDS011;5553;48.506;8.870;2022-10-16T06:07:33;2.47;;;1.83;;
11000;SDS011;5553;48.506;8.870;2022-10-16T06:10:05;2.43;;;1.97;;
11000;SDS011;5553;48.506;8.870;2022-10-16T06:12:34;2.73;;;2.30;;
11000;SDS011;5553;48.506;8.870;2022-10-16T06:15:03;3.73;;;2.23;;
11000;SDS011;5553;48.506;8.870;2022-10-16T06:17:32;2.00;;;1.80;;
11000;SDS011;5553;48.506;8.870;2022-10-16T06:20:00;1.83;;;1.50;;
11000;SDS011;5553;48.506;8.870;2022-10-16T06:22:29;2.20;;;1.87;;
11000;SDS011;5553;48.506;8.870;2022-10-16T06:24:57;2.57;;;1.67;;
11000;SDS011;5553;48.506;8.870;2022-10-16T06:27:28;2.93;;;2.33;;
11000;SDS011;5553;48.506;8.870;2022-10-16T06:29:56;2.30;;;2.10;;
11000;SDS011;5553;48.506;8.870;2022-10-16T06:32:25;2.27;;;1.63;;
11000;SDS011;5553;48.506;8.870;2022-10-16T06:34:53;2.23;;;2.03;;
11000;SDS011;5553;48.506;8.870;2022-10-16T06:37:21;6.13;;;2.50;;
11000;SDS011;5553;48.506;8.870;2022-10-16T06:39:50;3.93;;;2.90;;
11000;SDS011;5553;48.506;8.870;2022-10-16T06:42:18;4.30;;;2.67;;
11000;SDS011;5553;48.506;8.870;2022-10-16T06:44:49;6.73;;;2.40;;
11000;SDS011;5553;48.506;8.870;2022-10-16T06:47:18;2.90;;;2.70;;
11000;SDS011;5553;48.506;8.870;2022-10-16T06:49:46;2.53;;;2.33;;
11000;SDS011;5553;48.506;8.870;2022-10-16T06:52:15;2.67;;;2.47;;
11000;SDS011;5553;48.506;8.870;2022-10-16T06:54:43;3.47;;;2.90;;
11000;SDS011;5553;48.506;8.870;2022-10-16T06:57:11;2.90;;;2.60;;
11000;SDS011;5553;48.506;8.870;2022-10-16T06:59:40;5.40;;;2.90;;
11000;SDS011;5553;48.506;8.870;2022-10-16T07:02:11;3.50;;;2.70;;
11000;SDS011;5553;48.506;8.870;2022-10-16T07:04:39;2.93;;;2.73;;
11000;SDS011;5553;48.506;8.870;2022-10-16T07:07:07;4.17;;;2.67;;
11000;SDS011;5553;48.506;8.870;2022-10-16T07:09:35;3.50;;;3.20;;
11000;SDS011;5553;48.506;8.870;2022-10-16T07:12:04;5.20;;;3.80;;
11000;SDS011;5553;48.506;8.870;2022-10-16T07:14:32;5.47;;;4.17;;
11000;SDS011;5553;48.506;8.870;2022-10-16T07:17:01;4.20;;;3.17;;
11000;SDS011;5553;48.506;8.870;2022-10-16T07:19:32;3.00;;;2.70;;
11000;SDS011;5553;48.506;8.870;2022-10-16T07:22:00;3.90;;;2.93;;
11000;SDS011;5553;48.506;8.870;2022-10-16T07:24:29;3.70;;;3.40;;
11000;SDS011;5553;48.506;8.870;2022-10-16T07:26:58;5.90;;;3.27;;
11000;SDS011;5553;48.506;8.870;2022-10-16T07:29:26;5.23;;;2.90;;
11000;SDS011;5553;48.506;8.870;2022-10-16T07:34:50;2.90;;;2.20;;
11000;SDS011;5553;48.506;8.870;2022-10-16T07:37:18;2.23;;;2.03;;
11000;SDS011;5553;48.506;8.870;2022-10-16T07:39:46;2.40;;;2.20;;
11000;SDS011;5553;48.506;8.870;2022-10-16T07:42:15;12.03;;;3.03;;
11000;SDS011;5553;48.506;8.870;2022-10-16T07:44:45;5.00;;;2.30;;
11000;SDS011;5553;48.506;8.870;2022-10-16T07:47:13;2.60;;;2.40;;
11000;SDS011;5553;48.506;8.870;2022-10-16T07:49:41;3.07;;;2.33;;
11000;SDS011;5553;48.506;8.870;2022-10-16T07:52:12;2.90;;;2.20;;
11000;SDS011;5553;48.506;8.870;2022-10-16T07:54:40;2.20;;;2.00;;
11000;SDS011;5553;48.506;8.870;2022-10-16T07:57:09;3.00;;;2.17;;
11000;SDS011;5553;48.506;8.870;2022-10-16T07:59:43;2.90;;;2.10;;
11000;SDS011;5553;48.506;8.870;2022-10-16T08:02:12;4.40;;;2.23;;
11000;SDS011;5553;48.506;8.870;2022-10-16T08:04:40;2.10;;;1.90;;
11000;SDS011;5553;48.506;8.870;2022-10-16T08:07:08;1.90;;;1.80;;
11000;SDS011;5553;48.506;8.870;2022-10-16T08:09:39;3.47;;;2.10;;
11000;SDS011;5553;48.506;8.870;2022-10-16T08:12:07;4.40;;;2.30;;
11000;SDS011;5553;48.506;8.870;2022-10-16T08:14:36;2.50;;;1.83;;
11000;SDS011;5553;48.506;8.870;2022-10-16T08:17:04;1.93;;;1.70;;
11000;SDS011;5553;48.506;8.870;2022-10-16T08:19:32;2.10;;;1.90;;
11000;SDS011;5553;48.506;8.870;2022-10-16T08:22:01;1.97;;;1.87;;
11000;SDS011;5553;48.506;8.870;2022-10-16T08:24:29;2.43;;;1.30;;
11000;SDS011;5553;48.506;8.870;2022-10-16T08:27:02;2.23;;;1.80;;
11000;SDS011;5553;48.506;8.870;2022-10-16T08:29:31;1.73;;;1.63;;
11000;SDS011;5553;48.506;8.870;2022-10-16T08:32:00;2.40;;;1.60;;
11000;SDS011;5553;48.506;8.870;2022-10-16T08:34:29;4.63;;;2.43;;
11000;SDS011;5553;48.506;8.870;2022-10-16T08:36:57;2.00;;;1.80;;
11000;SDS011;5553;48.506;8.870;2022-10-16T08:39:25;2.07;;;1.83;;
11000;SDS011;5553;48.506;8.870;2022-10-16T08:42:05;2.50;;;1.90;;
11000;SDS011;5553;48.506;8.870;2022-10-16T08:45:01;2.83;;;1.40;;
11000;SDS011;5553;48.506;8.870;2022-10-16T08:47:48;5.10;;;1.90;;
11000;SDS011;5553;48.506;8.870;2022-10-16T08:50:23;4.77;;;1.77;;
11000;SDS011;5553;48.506;8.870;2022-10-16T08:52:53;5.10;;;2.00;;
11000;SDS011;5553;48.506;8.870;2022-10-16T08:55:29;2.50;;;1.80;;
11000;SDS011;5553;48.506;8.870;2022-10-16T08:58:05;2.07;;;1.97;;
11000;SDS011;5553;48.506;8.870;2022-10-16T09:00:39;4.17;;;2.30;;
11000;SDS011;5553;48.506;8.870;2022-10-16T09:03:11;5.50;;;2.40;;
11000;SDS011;5553;48.506;8.870;2022-10-16T09:05:56;3.70;;;1.80;;
11000;SDS011;5553;48.506;8.870;2022-10-16T09:08:36;2.13;;;1.90;;
11000;SDS011;5553;48.506;8.870;2022-10-16T09:11:16;3.00;;;1.70;;
11000;SDS011;5553;48.506;8.870;2022-10-16T09:13:59;1.77;;;1.60;;
11000;SDS011;5553;48.506;8.870;2022-10-16T09:16:35;3.40;;;2.30;;
11000;SDS011;5553;48.506;8.870;2022-10-16T09:19:09;1.90;;;1.67;;
11000;SDS011;5553;48.506;8.870;2022-10-16T09:21:43;2.93;;;1.63;;
11000;SDS011;5553;48.506;8.870;2022-10-16T09:24:13;1.67;;;1.57;;
11000;SDS011;5553;48.506;8.870;2022-10-16T09:26:43;2.57;;;1.87;;
11000;SDS011;5553;48.506;8.870;2022-10-16T09:29:16;2.30;;;1.60;;
11000;SDS011;5553;48.506;8.870;2022-10-16T09:31:46;2.10;;;2.00;;
11000;SDS011;5553;48.506;8.870;2022-10-16T09:34:17;5.70;;;2.40;;
11000;SDS011;5553;48.506;8.870;2022-10-16T09:36:52;1.70;;;1.60;;
11000;SDS011;5553;48.506;8.870;2022-10-16T09:39:21;1.87;;;1.77;;
11000;SDS011;5553;48.506;8.870;2022-10-16T09:41:50;4.30;;;1.30;;
11000;SDS011;5553;48.506;8.870;2022-10-16T09:44:23;2.43;;;1.60;;
11000;SDS011;5553;48.506;8.870;2022-10-16T09:47:02;2.90;;;1.50;;
11000;SDS011;5553;48.506;8.870;2022-10-16T09:49:31;1.87;;;1.77;;
11000;SDS011;5553;48.506;8.870;2022-10-16T09:52:03;5.03;;;1.37;;
11000;SDS011;5553;48.506;8.870;2022-10-16T09:54:31;3.67;;;1.40;;
11000;SDS011;5553;48.506;8.870;2022-10-16T09:57:06;1.47;;;1.30;;
11000;SDS011;5553;48.506;8.870;2022-10-16T09:59:47;2.20;;;1.30;;
11000;SDS011;5553;48.506;8.870;2022-10-16T10:02:18;2.47;;;1.70;;
11000;SDS011;5553;48.506;8.870;2022-10-16T10:04:49;1.70;;;1.23;;
11000;SDS011;5553;48.506;8.870;2022-10-16T10:07:21;2.17;;;1.50;;
11000;SDS011;5553;48.506;8.870;2022-10-16T10:09:53;1.80;;;1.37;;
11000;SDS011;5553;48.506;8.870;2022-10-16T10:12:24;3.77;;;1.77;;
11000;SDS011;5553;48.506;8.870;2022-10-16T10:14:56;3.43;;;1.60;;
11000;SDS011;5553;48.506;8.870;2022-10-16T10:17:27;2.47;;;1.83;;
11000;SDS011;5553;48.506;8.870;2022-10-16T10:19:56;4.03;;;1.77;;
11000;SDS011;5553;48.506;8.870;2022-10-16T10:22:27;1.40;;;1.30;;
11000;SDS011;5553;48.506;8.870;2022-10-16T10:25:00;1.90;;;1.50;;
11000;SDS011;5553;48.506;8.870;2022-10-16T10:27:42;1.93;;;1.30;;
11000;SDS011;5553;48.506;8.870;2022-10-16T10:30:22;3.17;;;1.50;;
11000;SDS011;5553;48.506;8.870;2022-10-16T10:32:58;1.87;;;1.77;;
11000;SDS011;5553;48.506;8.870;2022-10-16T10:35:40;2.37;;;1.77;;
11000;SDS011;5553;48.506;8.870;2022-10-16T10:38:20;1.60;;;1.50;;
11000;SDS011;5553;48.506;8.870;2022-10-16T10:41:01;1.60;;;1.50;;
11000;SDS011;5553;48.506;8.870;2022-10-16T10:43:45;1.47;;;1.37;;
11000;SDS011;5553;48.506;8.870;2022-10-16T10:46:28;1.90;;;1.67;;
11000;SDS011;5553;48.506;8.870;2022-10-16T10:49:10;7.63;;;1.47;;
11000;SDS011;5553;48.506;8.870;2022-10-16T10:52:02;2.20;;;1.53;;
11000;SDS011;5553;48.506;8.870;2022-10-16T10:54:41;2.17;;;1.97;;
11000;SDS011;5553;48.506;8.870;2022-10-16T10:57:21;1.93;;;1.70;;
11000;SDS011;5553;48.506;8.870;2022-10-16T11:00:03;1.57;;;1.47;;
11000;SDS011;5553;48.506;8.870;2022-10-16T11:02:44;6.33;;;2.20;;
11000;SDS011;5553;48.506;8.870;2022-10-16T11:05:26;3.37;;;1.60;;
11000;SDS011;5553;48.506;8.870;2022-10-16T11:08:08;2.00;;;1.90;;
11000;SDS011;5553;48.506;8.870;2022-10-16T11:10:43;3.63;;;1.60;;
11000;SDS011;5553;48.506;8.870;2022-10-16T11:13:20;5.40;;;2.03;;
11000;SDS011;5553;48.506;8.870;2022-10-16T11:15:55;6.33;;;1.63;;
11000;SDS011;5553;48.506;8.870;2022-10-16T11:18:33;2.53;;;1.60;;
11000;SDS011;5553;48.506;8.870;2022-10-16T11:21:11;2.60;;;1.40;;
11000;SDS011;5553;48.506;8.870;2022-10-16T11:23:43;1.53;;;1.43;;
11000;SDS011;5553;48.506;8.870;2022-10-16T11:26:17;2.90;;;1.97;;
11000;SDS011;5553;48.506;8.870;2022-10-16T11:28:49;2.10;;;1.70;;
11000;SDS011;5553;48.506;8.870;2022-10-16T11:31:22;4.97;;;1.80;;
11000;SDS011;5553;48.506;8.870;2022-10-16T11:34:01;2.40;;;2.10;;
11000;SDS011;5553;48.506;8.870;2022-10-16T11:36:38;1.93;;;1.60;;
11000;SDS011;5553;48.506;8.870;2022-10-16T11:39:11;3.00;;;1.50;;
11000;SDS011;5553;48.506;8.870;2022-10-16T11:41:48;1.57;;;1.47;;
11000;SDS011;5553;48.506;8.870;2022-10-16T11:44:23;1.60;;;1.50;;
11000;SDS011;5553;48.506;8.870;2022-10-16T11:47:05;2.40;;;2.00;;
11000;SDS011;5553;48.506;8.870;2022-10-16T11:49:43;2.57;;;1.77;;
11000;SDS011;5553;48.506;8.870;2022-10-16T11:52:15;1.77;;;1.67;;
11000;SDS011;5553;48.506;8.870;2022-10-16T11:54:50;1.93;;;1.77;;
11000;SDS011;5553;48.506;8.870;2022-10-16T11:57:25;1.87;;;1.77;;
11000;SDS011;5553;48.506;8.870;2022-10-16T11:59:57;2.60;;;2.40;;
11000;SDS011;5553;48.506;8.870;2022-10-16T12:02:31;3.27;;;1.87;;
11000;SDS011;5553;48.506;8.870;2022-10-16T12:05:24;2.20;;;2.00;;
11000;SDS011;5553;48.506;8.870;2022-10-16T12:08:03;2.20;;;1.80;;
11000;SDS011;5553;48.506;8.870;2022-10-16T12:10:36;2.23;;;1.80;;
11000;SDS011;5553;48.506;8.870;2022-10-16T12:16:06;2.50;;;2.07;;
11000;SDS011;5553;48.506;8.870;2022-10-16T12:18:47;3.47;;;1.47;;
11000;SDS011;5553;48.506;8.870;2022-10-16T12:21:19;1.93;;;1.73;;
11000;SDS011;5553;48.506;8.870;2022-10-16T12:23:58;2.40;;;2.20;;
11000;SDS011;5553;48.506;8.870;2022-10-16T12:26:29;1.70;;;1.60;;
11000;SDS011;5553;48.506;8.870;2022-10-16T12:29:11;1.57;;;1.47;;
11000;SDS011;5553;48.506;8.870;2022-10-16T12:31:43;2.20;;;1.53;;
11000;SDS011;5553;48.506;8.870;2022-10-16T12:34:20;3.10;;;2.10;;
11000;SDS011;5553;48.506;8.870;2022-10-16T15:20:14;4.17;;;2.67;;
11000;SDS011;5553;48.506;8.870;2022-10-16T15:22:43;3.83;;;2.47;;
11000;SDS011;5553;48.506;8.870;2022-10-16T15:25:13;3.90;;;2.20;;
11000;SDS011;5553;48.506;8.870;2022-10-16T15:27:55;5.07;;;3.10;;
11000;SDS011;5553;48.506;8.870;2022-10-16T15:30:23;4.70;;;2.73;;
11000;SDS011;5553;48.506;8.870;2022-10-16T15:32:52;5.63;;;2.67;;
11000;SDS011;5553;48.506;8.870;2022-10-16T15:35:23;5.37;;;2.67;;
11000;SDS011;5553;48.506;8.870;2022-10-16T15:37:51;3.87;;;2.30;;
11000;SDS011;5553;48.506;8.870;2022-10-16T15:40:20;6.67;;;2.47;;
11000;SDS011;5553;48.506;8.870;2022-10-16T15:42:49;2.30;;;2.10;;
11000;SDS011;5553;48.506;8.870;2022-10-16T15:45:17;4.30;;;2.40;;
11000;SDS011;5553;48.506;8.870;2022-10-16T15:47:46;2.53;;;2.33;;
11000;SDS011;5553;48.506;8.870;2022-10-16T15:50:15;2.27;;;2.17;;
11000;SDS011;5553;48.506;8.870;2022-10-16T15:52:46;2.97;;;2.63;;
11000;SDS011;5553;48.506;8.870;2022-10-16T15:55:15;5.03;;;3.73;;
11000;SDS011;5553;48.506;8.870;2022-10-16T15:57:43;4.13;;;3.40;;
11000;SDS011;5553;48.506;8.870;2022-10-16T16:00:13;3.20;;;2.40;;
11000;SDS011;5553;48.506;8.870;2022-10-16T16:02:48;2.70;;;2.50;;
11000;SDS011;5553;48.506;8.870;2022-10-16T16:05:18;2.73;;;2.50;;
11000;SDS011;5553;48.506;8.870;2022-10-16T16:07:50;3.47;;;2.70;;
11000;SDS011;5553;48.506;8.870;2022-10-16T16:10:19;3.27;;;2.60;;
11000;SDS011;5553;48.506;8.870;2022-10-16T16:12:48;4.53;;;2.80;;
11000;SDS011;5553;48.506;8.870;2022-10-16T16:15:18;3.73;;;2.73;;
11000;SDS011;5553;48.506;8.870;2022-10-16T16:17:47;2.50;;;2.23;;
11000;SDS011;5553;48.506;8.870;2022-10-16T16:20:15;3.60;;;2.50;;
11000;SDS011;5553;48.506;8.870;2022-10-16T16:22:44;4.63;;;2.60;;
11000;SDS011;5553;48.506;8.870;2022-10-16T16:25:15;2.90;;;2.70;;
11000;SDS011;5553;48.506;8.870;2022-10-16T16:27:43;2.63;;;2.43;;
11000;SDS011;5553;48.506;8.870;2022-10-16T16:30:12;3.00;;;2.43;;
11000;SDS011;5553;48.506;8.870;2022-10-16T16:32:40;3.70;;;2.50;;
11000;SDS011;5553;48.506;8.870;2022-10-16T16:35:09;4.23;;;2.17;;
11000;SDS011;5553;48.506;8.870;2022-10-16T16:37:40;3.03;;;2.10;;
11000;SDS011;5553;48.506;8.870;2022-10-16T16:40:09;3.93;;;3.10;;
11000;SDS011;5553;48.506;8.870;2022-10-16T16:42:40;4.10;;;3.53;;
11000;SDS011;5553;48.506;8.870;2022-10-16T16:45:08;4.70;;;3.40;;
11000;SDS011;5553;48.506;8.870;2022-10-16T16:47:37;5.40;;;3.70;;
11000;SDS011;5553;48.506;8.870;2022-10-16T16:50:08;8.10;;;4.87;;
11000;SDS011;5553;48.506;8.870;2022-10-16T16:52:36;6.70;;;4.10;;
11000;SDS011;5553;48.506;8.870;2022-10-16T16:55:05;4.97;;;3.50;;
11000;SDS011;5553;48.506;8.870;2022-10-16T16:57:34;6.37;;;3.90;;
11000;SDS011;5553;48.506;8.870;2022-10-16T17:00:05;4.97;;;3.30;;
11000;SDS011;5553;48.506;8.870;2022-10-16T17:02:35;4.93;;;3.30;;
11000;SDS011;5553;48.506;8.870;2022-10-16T17:05:08;3.57;;;3.23;;
11000;SDS011;5553;48.506;8.870;2022-10-16T17:07:37;4.30;;;2.73;;
11000;SDS011;5553;48.506;8.870;2022-10-16T17:10:06;12.03;;;3.50;;
11000;SDS011;5553;48.506;8.870;2022-10-16T17:12:35;5.60;;;3.60;;
11000;SDS011;5553;48.506;8.870;2022-10-16T17:15:06;7.00;;;3.80;;
11000;SDS011;5553;48.506;8.870;2022-10-16T17:17:35;5.50;;;3.33;;
11000;SDS011;5553;48.506;8.870;2022-10-16T17:20:05;5.40;;;3.83;;
11000;SDS011;5553;48.506;8.870;2022-10-16T17:22:35;7.40;;;4.13;;
11000;SDS011;5553;48.506;8.870;2022-10-16T17:25:04;6.33;;;3.20;;
11000;SDS011;5553;48.506;8.870;2022-10-16T17:27:33;9.13;;;3.60;;
11000;SDS011;5553;48.506;8.870;2022-10-16T17:30:03;3.90;;;3.50;;
11000;SDS011;5553;48.506;8.870;2022-10-16T17:32:34;3.67;;;3.00;;
11000;SDS011;5553;48.506;8.870;2022-10-16T17:35:03;4.67;;;3.27;;
11000;SDS011;5553;48.506;8.870;2022-10-16T17:37:32;5.27;;;3.13;;
11000;SDS011;5553;48.506;8.870;2022-10-16T17:40:01;3.13;;;2.80;;
11000;SDS011;5553;48.506;8.870;2022-10-16T17:42:29;3.67;;;3.30;;
11000;SDS011;5553;48.506;8.870;2022-10-16T17:44:57;4.23;;;3.90;;
11000;SDS011;5553;48.506;8.870;2022-10-16T17:47:28;5.40;;;4.33;;
11000;SDS011;5553;48.506;8.870;2022-10-16T17:49:57;8.43;;;3.90;;
11000;SDS011;5553;48.506;8.870;2022-10-16T17:52:25;6.37;;;4.57;;
11000;SDS011;5553;48.506;8.870;2022-10-16T17:54:53;4.77;;;4.03;;
11000;SDS011;5553;48.506;8.870;2022-10-16T17:57:22;4.93;;;4.43;;
11000;SDS011;5553;48.506;8.870;2022-10-16T17:59:50;5.67;;;3.20;;
11000;SDS011;5553;48.506;8.870;2022-10-16T18:02:20;11.40;;;3.70;;
11000;SDS011;5553;48.506;8.870;2022-10-16T18:04:52;7.13;;;3.27;;
11000;SDS011;5553;48.506;8.870;2022-10-16T18:07:20;3.00;;;2.60;;
11000;SDS011;5553;48.506;8.870;2022-10-16T18:09:49;4.50;;;2.60;;
11000;SDS011;5553;48.506;8.870;2022-10-16T18:12:17;3.63;;;3.10;;
11000;SDS011;5553;48.506;8.870;2022-10-16T18:14:46;4.50;;;4.10;;
11000;SDS011;5553;48.506;8.870;2022-10-16T18:17:14;5.90;;;4.23;;